Time;durP1;ratioP1;P1;durP2;ratioP2;P2;SDS_P1;SDS_P2;PMS_P1;PMS_P2;Temp;Humidity;BMP_temperature;BMP_pressure;BME280_temperature;BME280_humidity;BME280_pressure;Samples;Min_cycle;Max_cycle;Signal;HPM_P1;HPM_P2
2023/09/16 00:01:57;;;;;;;0.13;0.13;;;;;;;22.57;46.51;100252.84;5327956;26;33415;-82
2023/09/16 00:04:26;;;;;;;0.37;0.30;;;;;;;22.49;46.74;100253.50;5327302;26;34363;-82
2023/09/16 00:06:53;;;;;;;0.45;0.32;;;;;;;22.47;46.65;100253.66;5346384;26;34788;-82
2023/09/16 00:09:21;;;;;;;0.00;0.00;;;;;;;22.47;47.29;100260.87;5326654;26;33356;-82
2023/09/16 00:11:49;;;;;;;0.20;0.20;;;;;;;22.39;48.21;100260.66;5309291;26;32519;-82
2023/09/16 00:14:18;;;;;;;0.08;0.03;;;;;;;22.27;48.91;100262.59;5346215;26;34761;-82
2023/09/16 00:16:47;;;;;;;0.40;0.40;;;;;;;22.31;48.81;100263.16;5309462;26;33160;-82
2023/09/16 00:19:15;;;;;;;1.45;0.82;;;;;;;22.32;48.52;100259.50;5346186;26;34585;-82
2023/09/16 00:21:43;;;;;;;0.10;0.00;;;;;;;22.19;49.05;100271.28;5328050;26;34355;-82
2023/09/16 00:24:11;;;;;;;0.28;0.28;;;;;;;22.15;48.99;100269.84;5327711;26;33611;-82
2023/09/16 00:26:40;;;;;;;1.48;0.65;;;;;;;22.01;49.61;100272.81;5326582;26;33072;-82
2023/09/16 00:29:08;;;;;;;0.40;0.25;;;;;;;22.45;48.50;100274.44;5328451;26;34003;-82
2023/09/16 00:31:37;;;;;;;0.70;0.10;;;;;;;22.32;49.29;100271.13;5309525;26;32728;-81
2023/09/16 00:34:06;;;;;;;1.90;0.57;;;;;;;22.14;49.79;100276.22;5328143;26;32814;-82
2023/09/16 00:36:34;;;;;;;0.57;0.30;;;;;;;22.04;49.39;100267.19;5345307;26;33936;-82
2023/09/16 00:39:01;;;;;;;0.20;0.13;;;;;;;21.61;50.89;100272.59;5309146;26;32963;-82
2023/09/16 00:41:29;;;;;;;0.65;0.60;;;;;;;21.60;51.50;100271.75;5345739;26;33378;-82
2023/09/16 00:43:57;;;;;;;2.92;0.25;;;;;;;21.58;51.82;100273.69;5367768;26;34632;-82
2023/09/16 00:46:24;;;;;;;0.30;0.25;;;;;;;21.52;52.04;100276.88;5348665;26;33163;-81
2023/09/16 00:48:52;;;;;;;0.00;0.00;;;;;;;21.52;52.65;100270.66;5368511;26;32881;-82
2023/09/16 00:51:21;;;;;;;0.85;0.77;;;;;;;21.58;52.30;100260.25;5331329;26;33405;-82
2023/09/16 00:53:49;;;;;;;1.70;0.82;;;;;;;21.53;52.56;100269.69;5330720;26;33863;-82
2023/09/16 00:56:17;;;;;;;0.47;0.40;;;;;;;21.59;52.64;100266.47;5331289;26;32926;-82
2023/09/16 00:58:45;;;;;;;0.10;0.10;;;;;;;21.67;52.64;100269.41;5367741;26;33918;-82
2023/09/16 01:01:14;;;;;;;0.10;0.10;;;;;;;21.77;52.43;100275.72;5349340;26;32920;-82
2023/09/16 01:03:42;;;;;;;0.22;0.22;;;;;;;21.62;52.98;100277.84;5368198;26;33891;-82
2023/09/16 01:06:10;;;;;;;1.02;0.75;;;;;;;21.58;53.36;100271.00;5330815;26;34169;-82
2023/09/16 01:08:38;;;;;;;1.00;0.40;;;;;;;21.56;53.77;100267.59;5331059;26;33611;-82
2023/09/16 01:11:06;;;;;;;0.00;0.00;;;;;;;21.58;53.83;100272.84;5331187;26;32439;-81
2023/09/16 01:13:35;;;;;;;0.30;0.30;;;;;;;21.53;53.98;100273.22;5368296;26;34728;-82
2023/09/16 01:16:30;;;;;;;0.30;0.22;;;;;;;21.48;53.89;100270.06;5330061;26;33329;-81
2023/09/16 01:19:04;;;;;;;0.15;0.15;;;;;;;21.48;53.67;100270.91;5349567;26;33286;-82
2023/09/16 01:21:32;;;;;;;0.57;0.43;;;;;;;21.56;53.35;100278.34;5368365;26;33615;-81
2023/09/16 01:24:20;;;;;;;2.37;0.28;;;;;;;21.57;53.81;100277.37;5331001;26;32982;-82
2023/09/16 01:26:48;;;;;;;0.00;0.00;;;;;;;21.65;53.46;100277.59;5331063;26;33830;-82
2023/09/16 01:29:16;;;;;;;0.40;0.40;;;;;;;21.55;53.78;100271.25;5349719;26;33018;-82
2023/09/16 01:31:45;;;;;;;0.20;0.20;;;;;;;21.55;53.80;100271.25;5330686;26;33831;-81
2023/09/16 01:34:29;;;;;;;0.25;0.25;;;;;;;21.47;53.89;100271.03;5330592;26;33923;-82
2023/09/16 01:36:58;;;;;;;0.60;0.37;;;;;;;21.46;54.33;100275.56;5331549;26;33987;-82
2023/09/16 01:39:29;;;;;;;0.98;0.32;;;;;;;21.53;54.14;100273.22;5349520;26;34121;-82
2023/09/16 01:41:58;;;;;;;1.50;0.45;;;;;;;21.59;53.91;100269.16;5348627;26;32835;-82
2023/09/16 01:44:26;;;;;;;0.00;0.00;;;;;;;21.56;54.03;100270.28;5349422;26;33761;-82
2023/09/16 01:46:54;;;;;;;0.13;0.13;;;;;;;21.61;53.97;100265.38;5349600;26;33093;-82
2023/09/16 01:49:23;;;;;;;1.37;0.90;;;;;;;21.67;53.80;100269.41;5330710;26;33473;-81
2023/09/16 01:51:51;;;;;;;0.52;0.25;;;;;;;21.72;53.58;100273.41;5349643;26;32714;-81
2023/09/16 01:54:19;;;;;;;4.78;0.90;;;;;;;21.87;53.25;100270.41;5368341;26;34522;-82
2023/09/16 01:56:47;;;;;;;1.12;0.88;;;;;;;21.87;53.10;100271.28;5349287;26;34254;-82
2023/09/16 01:59:15;;;;;;;0.32;0.32;;;;;;;21.54;53.93;100277.59;5387861;26;33554;-82
2023/09/16 02:01:45;;;;;;;0.47;0.20;;;;;;;21.48;54.37;100278.13;5331380;26;33258;-82
2023/09/16 02:04:13;;;;;;;0.98;0.20;;;;;;;21.47;54.26;100273.72;5349980;26;33571;-81
2023/09/16 02:06:41;;;;;;;0.30;0.28;;;;;;;21.35;54.20;100266.66;5330920;26;34308;-82
2023/09/16 02:09:09;;;;;;;0.55;0.50;;;;;;;21.53;53.40;100275.06;5368064;26;34809;-82
2023/09/16 02:11:37;;;;;;;0.20;0.17;;;;;;;21.50;53.04;100278.81;5330946;26;33669;-82
2023/09/16 02:14:07;;;;;;;1.08;0.73;;;;;;;21.52;53.07;100276.88;5367153;26;33911;-82
2023/09/16 02:16:37;;;;;;;0.00;0.00;;;;;;;21.57;53.06;100280.06;5330204;26;35275;-81
2023/09/16 02:19:05;;;;;;;0.40;0.37;;;;;;;21.57;53.47;100287.25;5349672;26;33647;-82
2023/09/16 02:21:33;;;;;;;0.32;0.32;;;;;;;21.54;53.84;100274.91;5367819;26;33056;-82
2023/09/16 02:24:01;;;;;;;0.30;0.28;;;;;;;21.69;53.44;100276.34;5366116;26;33942;-81
2023/09/16 02:26:28;;;;;;;0.30;0.30;;;;;;;21.70;53.17;100272.69;5366190;26;33471;-82
2023/09/16 02:28:56;;;;;;;0.32;0.32;;;;;;;21.61;53.55;100268.06;5349113;26;33514;-81
2023/09/16 02:31:26;;;;;;;6.53;1.08;;;;;;;21.61;53.58;100268.06;5367597;26;32386;-81
2023/09/16 02:33:58;;;;;;;0.00;0.00;;;;;;;21.52;54.33;100268.81;5348982;26;33669;-81
2023/09/16 02:36:26;;;;;;;0.00;0.00;;;;;;;21.63;53.96;100267.94;5331218;26;34429;-82
2023/09/16 02:38:54;;;;;;;0.20;0.20;;;;;;;21.41;54.71;100276.88;5349264;26;33022;-82
2023/09/16 02:41:21;;;;;;;0.60;0.60;;;;;;;21.50;54.49;100270.75;5348557;26;32416;-82
2023/09/16 02:43:49;;;;;;;0.20;0.20;;;;;;;21.47;54.87;100268.34;5349235;26;35516;-82
2023/09/16 02:46:17;;;;;;;1.40;0.35;;;;;;;21.53;54.86;100272.38;5330659;26;33816;-81
2023/09/16 02:48:45;;;;;;;0.30;0.30;;;;;;;21.56;54.63;100272.97;5330786;26;32894;-82
2023/09/16 02:51:13;;;;;;;2.62;0.25;;;;;;;21.53;54.70;100273.22;5367842;26;33153;-82
2023/09/16 02:53:42;;;;;;;0.10;0.10;;;;;;;21.56;54.51;100272.97;5329727;26;33183;-82
2023/09/16 02:56:10;;;;;;;0.08;0.08;;;;;;;21.46;54.24;100272.03;5330535;26;33299;-82
2023/09/16 02:58:38;;;;;;;0.20;0.10;;;;;;;21.44;54.52;100273.97;5348618;26;33365;-81
2023/09/16 03:01:10;;;;;;;0.15;0.10;;;;;;;21.42;54.75;100275.94;5348427;26;32530;-82
2023/09/16 03:03:40;;;;;;;1.50;0.62;;;;;;;21.44;54.74;100271.28;5349133;26;32759;-82
2023/09/16 03:06:07;;;;;;;1.35;0.68;;;;;;;21.41;54.83;100272.41;5367970;26;36225;-81
2023/09/16 03:08:35;;;;;;;0.00;0.00;;;;;;;21.33;54.64;100271.31;5367689;26;33917;-81
2023/09/16 03:11:04;;;;;;;0.52;0.52;;;;;;;21.46;54.15;100272.88;5350208;26;32156;-82
2023/09/16 03:13:32;;;;;;;0.75;0.55;;;;;;;21.52;53.65;100274.19;5349759;26;33284;-81
2023/09/16 03:16:16;;;;;;;0.45;0.35;;;;;;;21.37;54.22;100264.72;5330874;26;34142;-82
2023/09/16 03:18:46;;;;;;;0.90;0.70;;;;;;;21.44;54.35;100273.97;5349379;26;33113;-82
2023/09/16 03:21:16;;;;;;;0.30;0.30;;;;;;;21.26;55.33;100272.72;5350362;26;33580;-81
2023/09/16 03:23:44;;;;;;;0.45;0.45;;;;;;;21.27;54.86;100266.38;5368164;26;33632;-82
2023/09/16 03:26:13;;;;;;;0.28;0.28;;;;;;;21.26;54.59;100265.53;5349658;26;33214;-82
2023/09/16 03:28:45;;;;;;;1.05;0.10;;;;;;;21.38;54.19;100275.31;5369727;26;33985;-81
2023/09/16 03:31:15;;;;;;;0.45;0.43;;;;;;;21.50;54.08;100278.81;5332188;26;33680;-82
2023/09/16 03:33:43;;;;;;;0.45;0.35;;;;;;;21.33;54.80;100282.06;5368431;26;32769;-82
2023/09/16 03:36:10;;;;;;;0.00;0.00;;;;;;;21.20;55.26;100283.00;5367652;26;33787;-82
2023/09/16 03:38:46;;;;;;;0.57;0.55;;;;;;;21.44;54.70;100290.09;5368421;26;33853;-82
2023/09/16 03:41:15;;;;;;;1.37;0.52;;;;;;;21.37;55.27;100288.88;5349391;26;32552;-82
2023/09/16 03:43:44;;;;;;;0.20;0.20;;;;;;;21.39;55.18;100281.53;5345431;26;33050;-81
2023/09/16 03:46:16;;;;;;;0.62;0.45;;;;;;;21.36;55.28;100282.62;5310282;26;33877;-81
2023/09/16 03:48:44;;;;;;;0.95;0.60;;;;;;;21.41;55.10;100277.78;5345572;26;34894;-82
2023/09/16 03:51:12;;;;;;;1.65;0.43;;;;;;;21.40;55.18;100276.03;5308372;26;33611;-81
2023/09/16 03:53:40;;;;;;;0.13;0.13;;;;;;;21.35;55.45;100280.09;5345390;26;33924;-82
2023/09/16 03:56:08;;;;;;;1.27;0.85;;;;;;;21.38;55.41;100274.47;5344949;26;33123;-82
2023/09/16 03:58:36;;;;;;;0.15;0.15;;;;;;;21.31;55.61;100274.09;5327604;26;32801;-81
2023/09/16 04:01:04;;;;;;;3.10;1.20;;;;;;;21.29;55.75;100277.87;5346174;26;34090;-82
2023/09/16 04:03:33;;;;;;;0.32;0.32;;;;;;;21.30;55.59;100274.19;5309091;26;33037;-82
2023/09/16 04:06:04;;;;;;;0.10;0.10;;;;;;;21.32;55.68;100275.81;5328301;26;33901;-82
2023/09/16 04:08:32;;;;;;;0.20;0.20;;;;;;;21.37;55.48;100268.25;5327540;26;33527;-82
2023/09/16 04:11:09;;;;;;;0.20;0.20;;;;;;;21.20;55.98;100266.88;5311893;26;32323;-82
2023/09/16 04:13:38;;;;;;;0.32;0.32;;;;;;;21.55;54.91;100273.94;5327550;26;33761;-82
2023/09/16 04:16:05;;;;;;;0.00;0.00;;;;;;;21.28;55.75;100270.78;5327478;26;34083;-82
2023/09/16 04:18:34;;;;;;;0.47;0.20;;;;;;;21.30;55.59;100275.03;5309156;26;33619;-81
2023/09/16 04:21:02;;;;;;;0.47;0.40;;;;;;;21.11;56.41;100273.00;5308131;26;34007;-81
2023/09/16 04:23:31;;;;;;;0.35;0.10;;;;;;;21.12;56.58;100279.22;5327852;26;32869;-81
2023/09/16 04:26:03;;;;;;;0.20;0.20;;;;;;;21.09;56.74;100274.09;5327406;26;33369;-82
2023/09/16 04:28:31;;;;;;;0.32;0.32;;;;;;;21.07;56.77;100279.56;5310327;26;33768;-81
2023/09/16 04:30:59;;;;;;;0.10;0.10;;;;;;;21.07;56.65;100287.63;5327451;26;32821;-82
2023/09/16 04:33:28;;;;;;;0.40;0.40;;;;;;;21.06;56.52;100288.63;5309485;26;33031;-82
2023/09/16 04:35:56;;;;;;;0.45;0.45;;;;;;;21.03;56.64;100290.69;5309174;26;33828;-82
2023/09/16 04:38:24;;;;;;;0.85;0.20;;;;;;;20.97;56.64;100281.28;5346228;26;34679;-82
2023/09/16 04:40:53;;;;;;;0.30;0.30;;;;;;;21.02;56.25;100289.81;5346462;26;33231;-81
2023/09/16 04:43:21;;;;;;;0.08;0.08;;;;;;;21.03;56.41;100296.06;5323007;26;32624;-82
2023/09/16 04:45:50;;;;;;;0.10;0.10;;;;;;;21.09;56.06;100292.91;5309152;26;33936;-82
2023/09/16 04:48:23;;;;;;;0.00;0.00;;;;;;;20.95;56.48;100289.47;5346999;26;33921;-82
2023/09/16 04:50:52;;;;;;;1.48;0.32;;;;;;;20.90;56.71;100277.41;5310128;26;32779;-82
2023/09/16 04:53:20;;;;;;;0.62;0.40;;;;;;;20.97;56.67;100281.28;5327773;26;34669;-82
2023/09/16 04:55:48;;;;;;;0.40;0.35;;;;;;;21.06;56.31;100293.97;5308109;26;32916;-81
2023/09/16 04:58:16;;;;;;;0.68;0.68;;;;;;;21.18;55.85;100293.03;5327484;26;33650;-82
2023/09/16 05:00:43;;;;;;;0.05;0.05;;;;;;;21.04;56.34;100293.25;5309328;26;33453;-82
2023/09/16 05:03:12;;;;;;;0.10;0.10;;;;;;;21.09;56.45;100296.44;5345766;26;33920;-82
2023/09/16 05:05:40;;;;;;;0.30;0.10;;;;;;;21.32;55.72;100301.84;5309206;26;33512;-81
2023/09/16 05:08:07;;;;;;;2.10;0.62;;;;;;;21.21;56.17;100298.13;5346075;26;33633;-81
2023/09/16 05:10:35;;;;;;;0.22;0.20;;;;;;;21.29;56.22;100302.03;5327206;26;33355;-83
2023/09/16 05:13:03;;;;;;;0.62;0.62;;;;;;;21.43;56.08;100301.81;5326292;26;33652;-81
2023/09/16 05:15:31;;;;;;;0.77;0.40;;;;;;;21.33;56.54;100298.16;5307761;26;32978;-81
2023/09/16 05:17:58;;;;;;;0.20;0.20;;;;;;;21.40;56.30;100300.22;5290615;26;33306;-81
2023/09/16 05:20:27;;;;;;;0.43;0.35;;;;;;;21.36;56.38;100300.59;5345520;26;32637;-81
2023/09/16 05:22:54;;;;;;;0.98;0.43;;;;;;;21.59;55.71;100296.03;5327396;26;33055;-82
2023/09/16 05:25:22;;;;;;;1.83;0.20;;;;;;;21.42;55.97;100305.47;5326415;26;34015;-82
2023/09/16 05:27:50;;;;;;;0.73;0.52;;;;;;;21.37;56.44;100307.69;5327655;26;33839;-81
2023/09/16 05:30:18;;;;;;;2.92;1.15;;;;;;;21.40;56.55;100308.28;5345813;26;33608;-82
2023/09/16 05:32:46;;;;;;;0.30;0.30;;;;;;;21.57;55.87;100312.28;5308169;26;33223;-82
2023/09/16 05:35:14;;;;;;;0.00;0.00;;;;;;;21.52;55.81;100303.75;5344704;26;33115;-82
2023/09/16 05:37:42;;;;;;;1.23;1.12;;;;;;;21.57;55.50;100312.28;5345609;26;33850;-81
2023/09/16 05:40:10;;;;;;;3.70;0.80;;;;;;;21.86;54.77;100304.53;5309010;26;32424;-82
2023/09/16 05:42:38;;;;;;;0.10;0.10;;;;;;;21.85;54.27;100304.66;5327255;26;33881;-82
2023/09/16 05:45:08;;;;;;;0.30;0.22;;;;;;;21.80;54.39;100304.19;5327458;26;33813;-82
2023/09/16 05:47:36;;;;;;;0.45;0.45;;;;;;;21.88;53.33;100305.22;5308662;26;32752;-82
2023/09/16 05:50:04;;;;;;;0.50;0.50;;;;;;;21.98;51.29;100292.75;5345459;26;32265;-81
2023/09/16 05:52:32;;;;;;;1.00;0.45;;;;;;;21.80;51.66;100307.72;5308402;26;33988;-82
2023/09/16 05:55:00;;;;;;;0.30;0.30;;;;;;;21.97;51.78;100307.16;5363180;26;33157;-82
2023/09/16 05:57:27;;;;;;;0.40;0.40;;;;;;;21.92;51.54;100303.16;5345665;26;34299;-82
2023/09/16 05:59:56;;;;;;;0.30;0.30;;;;;;;22.14;50.77;100304.94;5309406;26;33360;-81
2023/09/16 06:02:23;;;;;;;0.43;0.43;;;;;;;21.92;51.03;100295.09;5327237;26;34772;-82
2023/09/16 06:04:51;;;;;;;0.20;0.20;;;;;;;22.18;50.81;100304.56;5327141;26;34341;-82
2023/09/16 06:07:19;;;;;;;0.47;0.40;;;;;;;22.18;50.62;100301.87;5345468;26;32694;-82
2023/09/16 06:09:46;;;;;;;0.00;0.00;;;;;;;21.76;51.49;100303.56;5327202;26;32667;-82
2023/09/16 06:12:14;;;;;;;0.45;0.43;;;;;;;21.91;51.54;100309.53;5327115;26;33711;-82
2023/09/16 06:14:42;;;;;;;0.90;0.45;;;;;;;21.79;52.01;100305.16;5326933;26;33066;-82
2023/09/16 06:17:09;;;;;;;0.62;0.35;;;;;;;21.89;51.86;100311.50;5345790;26;34035;-82
2023/09/16 06:19:38;;;;;;;0.22;0.22;;;;;;;21.90;51.15;100310.50;5308696;26;33072;-82
2023/09/16 06:22:09;;;;;;;0.75;0.50;;;;;;;21.80;51.54;100302.34;5308820;26;33084;-82
2023/09/16 06:24:37;;;;;;;0.15;0.10;;;;;;;22.14;51.15;100300.41;5307876;26;33815;-82
2023/09/16 06:27:05;;;;;;;0.45;0.37;;;;;;;22.44;49.77;100296.09;5327360;26;34673;-82
2023/09/16 06:29:32;;;;;;;0.75;0.47;;;;;;;22.67;48.74;100297.69;5345702;26;33508;-82
2023/09/16 06:32:01;;;;;;;0.50;0.22;;;;;;;22.29;49.58;100297.41;5326868;26;33151;-82
2023/09/16 06:34:29;;;;;;;1.73;0.70;;;;;;;22.31;49.20;100290.91;5365378;26;33783;-80
2023/09/16 06:36:59;;;;;;;0.20;0.20;;;;;;;22.25;49.90;100294.13;5308193;26;33652;-82
2023/09/16 06:39:27;;;;;;;1.08;0.20;;;;;;;21.99;50.49;100301.69;5345990;26;33418;-82
2023/09/16 06:41:55;;;;;;;0.55;0.55;;;;;;;22.15;50.05;100301.28;5326917;26;32977;-82
2023/09/16 06:44:22;;;;;;;0.15;0.15;;;;;;;22.16;50.07;100300.28;5307477;26;34302;-82
2023/09/16 06:46:50;;;;;;;0.68;0.52;;;;;;;22.39;49.69;100299.19;5327119;26;33993;-82
2023/09/16 06:49:18;;;;;;;0.43;0.28;;;;;;;22.46;49.21;100300.38;5308824;26;32207;-82
2023/09/16 06:51:45;;;;;;;0.10;0.10;;;;;;;22.41;49.45;100301.78;5345949;26;34049;-82
2023/09/16 06:54:14;;;;;;;0.35;0.35;;;;;;;22.47;49.80;100301.25;5327660;26;33500;-82
2023/09/16 06:56:41;;;;;;;1.65;0.20;;;;;;;22.45;50.08;100301.34;5328065;26;34096;-81
2023/09/16 06:59:09;;;;;;;0.22;0.17;;;;;;;22.26;50.70;100301.22;5327334;26;32953;-82
2023/09/16 07:01:37;;;;;;;0.00;0.00;;;;;;;22.42;50.23;100306.16;5327937;26;33184;-82
2023/09/16 07:04:05;;;;;;;0.37;0.10;;;;;;;22.83;49.13;100294.50;5327757;26;33391;-81
2023/09/16 07:06:33;;;;;;;2.42;0.57;;;;;;;22.99;48.92;100307.53;5346132;26;34842;-82
2023/09/16 07:09:00;;;;;;;0.17;0.17;;;;;;;22.68;49.23;100306.59;5327788;26;33335;-82
2023/09/16 07:11:28;;;;;;;0.20;0.20;;;;;;;22.89;48.21;100306.62;5327054;26;33241;-81
2023/09/16 07:13:56;;;;;;;0.35;0.35;;;;;;;23.02;48.41;100311.78;5309529;26;33199;-82
2023/09/16 07:16:35;;;;;;;0.20;0.20;;;;;;;22.74;48.73;100309.62;5309060;26;33806;-82
2023/09/16 07:19:03;;;;;;;0.35;0.35;;;;;;;22.91;48.19;100305.50;5326936;26;31959;-81
2023/09/16 07:21:31;;;;;;;0.73;0.73;;;;;;;22.69;49.03;100317.25;5308263;26;33496;-82
2023/09/16 07:24:01;;;;;;;0.52;0.52;;;;;;;22.62;48.59;100307.16;5346019;26;34933;-81
2023/09/16 07:26:29;;;;;;;0.65;0.65;;;;;;;22.69;48.41;100314.56;5346563;26;33575;-82
2023/09/16 07:28:57;;;;;;;0.77;0.50;;;;;;;22.33;48.83;100318.56;5327830;26;32618;-82
2023/09/16 07:31:24;;;;;;;2.50;0.45;;;;;;;22.80;48.30;100318.16;5308779;26;34534;-82
2023/09/16 07:33:52;;;;;;;0.30;0.30;;;;;;;22.55;48.69;100325.66;5345461;26;34489;-82
2023/09/16 07:36:20;;;;;;;0.40;0.40;;;;;;;22.70;48.60;100313.56;5309813;26;33447;-81
2023/09/16 07:38:48;;;;;;;0.35;0.35;;;;;;;22.86;48.42;100306.84;5327603;26;33251;-82
2023/09/16 07:41:18;;;;;;;0.30;0.30;;;;;;;22.75;47.93;100311.34;5347067;26;33793;-82
2023/09/16 07:43:45;;;;;;;1.33;0.93;;;;;;;23.09;47.81;100311.13;5345188;26;33695;-82
2023/09/16 07:46:13;;;;;;;3.78;0.75;;;;;;;23.24;47.01;100317.00;5364691;26;33869;-82
2023/09/16 07:48:41;;;;;;;1.42;1.08;;;;;;;23.04;47.66;100312.50;5327791;26;33736;-81
2023/09/16 07:51:08;;;;;;;0.25;0.25;;;;;;;22.77;48.54;100308.50;5345218;26;34042;-82
2023/09/16 07:53:36;;;;;;;0.68;0.68;;;;;;;23.26;48.27;100298.84;5345302;26;34677;-81
2023/09/16 07:56:04;;;;;;;0.28;0.28;;;;;;;23.23;48.19;100294.59;5308688;26;32895;-82
2023/09/16 07:58:32;;;;;;;0.65;0.57;;;;;;;23.51;47.19;100295.66;5364189;26;33406;-82
2023/09/16 08:00:59;;;;;;;0.28;0.28;;;;;;;23.69;47.31;100305.78;5364258;26;33187;-82
2023/09/16 08:03:27;;;;;;;0.40;0.30;;;;;;;23.43;47.35;100302.75;5327400;26;33108;-82
2023/09/16 08:05:55;;;;;;;8.98;0.32;;;;;;;23.63;47.05;100301.78;5345857;26;33822;-82
2023/09/16 08:08:23;;;;;;;0.55;0.50;;;;;;;23.80;47.03;100305.69;5363960;26;34002;-82
2023/09/16 08:10:51;;;;;;;0.28;0.28;;;;;;;24.07;45.42;100294.22;5327870;26;33372;-82
2023/09/16 08:13:19;;;;;;;0.22;0.22;;;;;;;24.37;44.65;100300.50;5346126;26;33987;-82
2023/09/16 08:15:46;;;;;;;0.17;0.17;;;;;;;24.06;45.52;100297.91;5346306;26;34005;-81
2023/09/16 08:18:15;;;;;;;1.77;0.55;;;;;;;23.74;46.79;100301.72;5326341;26;33016;-82
2023/09/16 08:20:42;;;;;;;0.60;0.37;;;;;;;24.31;45.58;100303.72;5327842;26;34416;-82
2023/09/16 08:23:12;;;;;;;4.12;0.90;;;;;;;24.65;45.75;100302.28;5345102;26;34352;-82
2023/09/16 08:25:39;;;;;;;0.28;0.28;;;;;;;24.32;46.56;100308.13;5365865;26;33962;-82
2023/09/16 08:28:07;;;;;;;0.20;0.20;;;;;;;24.38;45.44;100313.00;5326454;26;32884;-82
2023/09/16 08:30:34;;;;;;;0.90;0.55;;;;;;;24.02;46.25;100315.34;5364146;26;34052;-82
2023/09/16 08:33:02;;;;;;;2.47;1.40;;;;;;;24.17;45.69;100308.56;5345952;26;33290;-82
2023/09/16 08:35:30;;;;;;;0.30;0.30;;;;;;;24.36;45.59;100302.34;5327212;26;33563;-82
2023/09/16 08:38:00;;;;;;;2.67;1.05;;;;;;;24.79;45.52;100306.41;5345849;26;34107;-80
2023/09/16 08:43:38;;;;;;;1.25;0.43;;;;;;;24.27;45.85;100305.88;5363261;26;33359;-80
2023/09/16 08:46:09;;;;;;;2.10;0.62;;;;;;;24.61;45.78;100300.88;5345219;26;34088;-80
2023/09/16 08:48:41;;;;;;;1.37;0.35;;;;;;;25.05;44.67;100303.88;5345477;26;34264;-81
2023/09/16 08:51:09;;;;;;;;;;;;;;;24.93;45.94;100305.06;5345658;26;34062;-80
2023/09/16 08:53:38;;;;;;;2.15;0.47;;;;;;;24.96;44.85;100304.75;5364113;26;34116;-80
2023/09/16 08:56:07;;;;;;;0.22;0.22;;;;;;;24.11;46.82;100309.13;5345157;26;34671;-80
2023/09/16 08:58:35;;;;;;;0.60;0.30;;;;;;;24.51;45.78;100305.44;5327288;26;31488;-80
2023/09/16 09:01:03;;;;;;;0.30;0.20;;;;;;;24.65;45.73;100306.84;5364100;26;34260;-79
2023/09/16 09:03:34;;;;;;;0.10;0.10;;;;;;;24.66;45.31;100305.84;5345754;26;33498;-81
2023/09/16 09:06:03;;;;;;;0.28;0.28;;;;;;;24.44;45.88;100298.91;5364083;26;33535;-79
2023/09/16 09:08:32;;;;;;;1.35;0.57;;;;;;;24.33;47.33;100301.75;5346160;26;33084;-79
2023/09/16 09:11:00;;;;;;;1.35;0.60;;;;;;;24.05;46.83;100307.00;5363630;26;33085;-80
2023/09/16 09:13:29;;;;;;;1.10;1.00;;;;;;;24.18;47.33;100301.31;5326612;26;32743;-79
2023/09/16 09:16:00;;;;;;;0.10;0.10;;;;;;;23.92;47.54;100299.16;5345863;26;32837;-79
2023/09/16 09:18:29;;;;;;;0.20;0.20;;;;;;;23.91;47.79;100296.62;5345864;26;33074;-79
2023/09/16 09:20:57;;;;;;;0.52;0.52;;;;;;;24.40;47.08;100289.38;5327118;26;32845;-79
2023/09/16 09:23:26;;;;;;;0.05;0.05;;;;;;;24.10;46.73;100299.31;5345371;26;34705;-79
2023/09/16 09:25:56;;;;;;;0.35;0.35;;;;;;;24.31;47.11;100298.31;5345703;26;33990;-79
2023/09/16 09:28:26;;;;;;;4.37;0.68;;;;;;;24.14;48.51;100292.66;5344829;26;33355;-79
2023/09/16 09:30:56;;;;;;;1.65;0.90;;;;;;;24.50;47.71;100298.34;5326847;26;32900;-79
2023/09/16 09:33:26;;;;;;;1.92;0.30;;;;;;;24.74;47.14;100297.87;5345576;26;32326;-80
2023/09/16 09:36:14;;;;;;;0.28;0.20;;;;;;;24.61;47.96;100287.38;5345642;26;33250;-80
2023/09/16 09:38:47;;;;;;;0.52;0.52;;;;;;;24.65;47.21;100288.81;5345958;26;33681;-80
2023/09/16 09:41:16;;;;;;;0.22;0.22;;;;;;;24.45;47.70;100287.09;5345736;26;32778;-80
2023/09/16 09:43:43;;;;;;;0.75;0.37;;;;;;;24.54;47.91;100291.63;5344041;26;33529;-80
2023/09/16 09:46:11;;;;;;;0.95;0.90;;;;;;;24.32;47.65;100291.94;5343165;26;33346;-80
2023/09/16 09:48:39;;;;;;;0.32;0.32;;;;;;;24.21;48.17;100296.50;5359797;26;32718;-80
2023/09/16 09:51:08;;;;;;;0.20;0.20;;;;;;;23.57;49.63;100307.75;5360702;26;33618;-79
2023/09/16 09:53:37;;;;;;;0.70;0.70;;;;;;;23.88;49.42;100294.19;5342143;26;33116;-79
2023/09/16 09:56:04;;;;;;;1.65;0.82;;;;;;;24.25;49.66;100297.87;5360968;26;34625;-79
2023/09/16 09:58:33;;;;;;;1.02;0.85;;;;;;;24.71;47.65;100293.59;5323367;26;32395;-79
2023/09/16 10:01:01;;;;;;;0.30;0.30;;;;;;;24.58;47.30;100292.22;5360154;26;33523;-79
2023/09/16 10:03:29;;;;;;;0.55;0.55;;;;;;;24.36;48.34;100287.97;5323964;26;34170;-79
2023/09/16 10:05:58;;;;;;;29.10;0.77;;;;;;;24.66;48.17;100289.66;5361456;26;33578;-80
2023/09/16 10:08:27;;;;;;;0.37;0.37;;;;;;;25.09;46.29;100281.00;5323880;26;33093;-79
2023/09/16 10:10:55;;;;;;;0.30;0.30;;;;;;;25.29;46.58;100282.59;5342745;26;32863;-79
2023/09/16 10:13:23;;;;;;;6.05;0.60;;;;;;;25.59;45.06;100288.72;5341418;26;34118;-79
2023/09/16 10:15:52;;;;;;;0.62;0.62;;;;;;;25.32;46.14;100280.63;5342407;26;33735;-79
2023/09/16 10:18:20;;;;;;;0.20;0.20;;;;;;;25.75;44.83;100278.09;5341633;26;33200;-79
2023/09/16 10:20:48;;;;;;;0.30;0.30;;;;;;;25.12;45.92;100290.69;5361005;26;34010;-79
2023/09/16 10:23:15;;;;;;;0.43;0.40;;;;;;;25.19;46.34;100284.50;5361779;26;34040;-79
2023/09/16 10:25:44;;;;;;;1.62;1.05;;;;;;;25.27;46.63;100279.22;5325304;26;33438;-79
2023/09/16 10:28:12;;;;;;;0.80;0.52;;;;;;;25.72;44.89;100272.09;5343451;26;33389;-79
2023/09/16 10:30:40;;;;;;;1.40;0.98;;;;;;;26.05;45.13;100265.19;5343554;26;32873;-79
2023/09/16 10:33:10;;;;;;;0.98;0.98;;;;;;;25.66;46.22;100280.84;5322865;26;32997;-79
2023/09/16 10:35:40;;;;;;;0.50;0.50;;;;;;;25.26;45.73;100274.81;5343274;26;33910;-79
2023/09/16 10:38:09;;;;;;;1.62;0.57;;;;;;;25.40;46.27;100272.59;5324628;26;32277;-79
2023/09/16 10:40:42;;;;;;;0.85;0.32;;;;;;;25.64;46.05;100253.97;5343608;26;33377;-79
2023/09/16 10:43:09;;;;;;;0.28;0.20;;;;;;;25.64;45.60;100270.19;5343506;26;34453;-79
2023/09/16 10:45:38;;;;;;;0.43;0.43;;;;;;;25.39;46.74;100268.19;5325117;26;33640;-80
2023/09/16 10:48:06;;;;;;;0.52;0.50;;;;;;;25.63;46.63;100279.28;5342081;26;33218;-80
2023/09/16 10:50:37;;;;;;;1.25;0.80;;;;;;;25.45;45.83;100275.72;5362087;26;32718;-80
2023/09/16 10:53:07;;;;;;;1.80;0.30;;;;;;;25.50;46.16;100273.41;5361876;26;33207;-80
2023/09/16 10:55:43;;;;;;;0.25;0.25;;;;;;;25.93;45.14;100267.31;5325123;26;32767;-80
2023/09/16 10:58:32;;;;;;;0.45;0.45;;;;;;;25.71;46.12;100265.84;5360897;26;33096;-80
2023/09/16 11:01:01;;;;;;;1.00;0.80;;;;;;;25.79;45.57;100259.72;5343608;26;34703;-80
2023/09/16 11:03:34;;;;;;;1.40;0.73;;;;;;;26.19;44.72;100256.53;5324726;26;32914;-80
2023/09/16 11:06:02;;;;;;;9.00;0.80;;;;;;;25.97;45.82;100259.69;5342874;26;33686;-80
2023/09/16 11:08:30;;;;;;;0.30;0.30;;;;;;;26.60;43.84;100246.03;5325180;26;33307;-80
2023/09/16 11:10:58;;;;;;;0.00;0.00;;;;;;;26.83;43.43;100245.50;5362009;26;34402;-80
2023/09/16 11:13:27;;;;;;;1.77;0.77;;;;;;;26.85;43.69;100246.19;5324694;26;33084;-80
2023/09/16 11:16:04;;;;;;;0.70;0.70;;;;;;;26.84;43.10;100237.19;5343643;26;33856;-80
2023/09/16 11:18:32;;;;;;;0.73;0.40;;;;;;;26.61;43.75;100241.47;5342790;26;32662;-80
2023/09/16 11:21:00;;;;;;;1.02;0.98;;;;;;;26.66;43.13;100244.53;5325342;26;34552;-80
2023/09/16 11:23:28;;;;;;;1.77;0.57;;;;;;;26.69;43.28;100231.53;5343560;26;32967;-80
2023/09/16 11:25:59;;;;;;;0.90;0.85;;;;;;;26.55;43.47;100226.72;5343764;26;34681;-80
2023/09/16 11:28:28;;;;;;;0.10;0.10;;;;;;;26.34;45.41;100223.47;5362441;26;34241;-80
2023/09/16 11:30:58;;;;;;;0.10;0.10;;;;;;;26.44;44.01;100229.66;5343555;26;34104;-80
2023/09/16 11:33:34;;;;;;;1.12;1.02;;;;;;;26.49;43.55;100221.91;5344053;26;34366;-80
2023/09/16 11:36:18;;;;;;;0.50;0.47;;;;;;;25.70;46.12;100225.44;5343487;26;33981;-80